Etusivu
METAR-TAF:

METAR-TAF

Lentoasemat :

Pau, Ranska

Leveyspiiri: 43-23N, Pituuspiiri: 000-25W, korkeus merenpinnasta: 188 m

Tämänhetkinen sää

Tämä raportti tehtiin 43 minuuttia sitten, kello 19.30 UTC
tyyntä
Lämpötila 21°C
Kosteus 83%
Ilmanpaine 1017 hPa
Näkyvyys 10 km tai enemmän
ei pilviä alle 1500 m:ssä eikä cumulonimbus-pilviä

METAR: LFBP 231930Z AUTO 00000KT CAVOK 21/18 Q1017 NOSIG

Aika: 22:13 (20:13 UTC)

Sääennuste

Tämä raportti tehtiin 3 tuntia ja 13 minuuttia sitten, kello 17.00 UTC
Ennuste voimassa 23. päivästä klo 18 UTC - 24. päivään klo 18 UTC
Tuuli 3 kn eri suunnista
Näkyvyys 10 km tai enemmän
ei pilviä alle 1500 m:ssä eikä cumulonimbus-pilviä
Tulossa
24. päivästä klo 17 UTC - 24. päivään klo 18 UTC
Tuuli 10 kn lännestä/luoteesta

TAF: LFBP 231700Z 2318/2418 VRB03KT CAVOK BECMG 2417/2418 30010KT

Säähavainnot ja -ennusteet yli 4000 lentoasemalta (METAR- ja TAF-raportit).

Käytössä olevat sääasemat on merkitty karttaan keltaisilla ja punaisilla pisteillä.

Aseta hiiri pisteen päälle nähdäksesi sääaseman nimen.

Klikkaa sitten nähdäksesi säähavainnot ja -ennusteet.

Kartan vaihtaminen: klikkaa mustalla rastilla varustettuja vihreitä pisteitä, niin voit zoomata sisään; viivalla varustettua vihreää pistettä, niin voit zoomata ulos tai vihreitä nuolia, niin pääset viereisille kartoille.


METAR-TAF: